createdAt,value
2023-05-20T00:00:31.075Z,102655.75
2023-05-20T00:03:35.192Z,102661.94
2023-05-20T00:06:38.900Z,102669.91
2023-05-20T00:09:43.855Z,102661.22
2023-05-20T00:12:48.274Z,102670.03
2023-05-20T00:15:51.970Z,102658.66
2023-05-20T00:18:56.868Z,102663.16
2023-05-20T00:22:00.439Z,102665.00
2023-05-20T00:25:06.403Z,102667.72
2023-05-20T00:28:09.993Z,102668.66
2023-05-20T00:31:13.810Z,102665.19
2023-05-20T00:34:17.345Z,102670.50
2023-05-20T00:37:20.913Z,102668.78
2023-05-20T00:40:26.092Z,102666.22
2023-05-20T00:43:29.632Z,102661.88
2023-05-20T00:46:33.477Z,102670.63
2023-05-20T00:49:37.271Z,102667.22
2023-05-20T00:52:41.685Z,102667.22
2023-05-20T00:55:46.834Z,102669.91
2023-05-20T00:58:51.189Z,102667.31
2023-05-20T01:01:56.494Z,102658.53
2023-05-20T01:05:00.904Z,102656.75
2023-05-20T01:08:05.861Z,102659.47
2023-05-20T01:11:20.009Z,102663.03
2023-05-20T01:14:28.439Z,102663.91
2023-05-20T01:17:38.018Z,102660.41
2023-05-20T01:20:41.765Z,102662.19
2023-05-20T01:23:46.750Z,102660.44
2023-05-20T01:26:50.714Z,102660.50
2023-05-20T01:29:54.908Z,102661.38
2023-05-20T01:33:07.024Z,102664.00
2023-05-20T01:36:13.322Z,102658.78
2023-05-20T01:39:20.007Z,102651.78
2023-05-20T01:42:26.638Z,102662.25
2023-05-20T01:45:30.294Z,102658.81
2023-05-20T01:48:34.685Z,102652.69
2023-05-20T01:51:38.402Z,102648.34
2023-05-20T01:54:43.324Z,102646.59
2023-05-20T01:57:47.285Z,102646.63
2023-05-20T02:00:51.084Z,102640.53
2023-05-20T02:03:54.797Z,102637.94
2023-05-20T02:06:59.376Z,102639.69
2023-05-20T02:10:04.600Z,102638.81
2023-05-20T02:13:08.113Z,102644.97
2023-05-20T02:16:11.732Z,102642.34
2023-05-20T02:19:20.172Z,102639.72
2023-05-20T02:22:23.686Z,102638.00
2023-05-20T02:25:28.663Z,102646.81
2023-05-20T02:28:32.356Z,102641.56
2023-05-20T02:31:36.058Z,102638.97
2023-05-20T02:34:40.521Z,102645.94
2023-05-20T02:37:44.950Z,102640.72
2023-05-20T02:40:49.979Z,102645.97
2023-05-20T02:43:54.309Z,102659.09
2023-05-20T02:46:57.879Z,102653.88
2023-05-20T02:50:01.605Z,102648.63
2023-05-20T02:53:05.393Z,102653.03
2023-05-20T02:56:11.049Z,102653.91
2023-05-20T02:59:14.664Z,102653.91
2023-05-20T03:02:18.188Z,102660.03
2023-05-20T03:05:22.854Z,102654.81
2023-05-20T03:08:26.978Z,102661.81
2023-05-20T03:11:32.024Z,102654.84
2023-05-20T03:14:35.544Z,102657.47
2023-05-20T03:17:39.207Z,102659.19
2023-05-20T03:20:43.096Z,102663.59
2023-05-20T03:23:46.973Z,102661.84
2023-05-20T03:26:51.984Z,102655.72
2023-05-20T03:29:55.669Z,102649.59
2023-05-20T03:33:00.326Z,102651.34
2023-05-20T03:36:04.096Z,102660.97
2023-05-20T03:39:07.961Z,102654.84
2023-05-20T03:42:12.971Z,102656.59
2023-05-20T03:45:16.549Z,102658.38
2023-05-20T03:48:20.325Z,102656.63
2023-05-20T03:51:23.898Z,102656.59
2023-05-20T03:54:28.159Z,102655.75
2023-05-20T03:57:33.438Z,102657.47
2023-05-20T04:00:37.086Z,102661.84
2023-05-20T04:03:42.178Z,102654.00
2023-05-20T04:06:46.330Z,102658.34
2023-05-20T04:09:51.159Z,102660.97
2023-05-20T04:12:56.141Z,102660.09
2023-05-20T04:16:00.246Z,102658.34
2023-05-20T04:19:03.875Z,102660.09
2023-05-20T04:22:08.002Z,102661.78
2023-05-20T04:25:12.435Z,102656.56
2023-05-20T04:28:18.066Z,102656.56
2023-05-20T04:31:27.029Z,102655.69
2023-05-20T04:34:35.218Z,102655.59
2023-05-20T04:37:39.131Z,102653.75
2023-05-20T04:40:42.959Z,102651.06
2023-05-20T04:43:48.010Z,102645.72
2023-05-20T04:46:51.686Z,102646.50
2023-05-20T04:49:57.734Z,102650.00
2023-05-20T04:53:01.950Z,102651.53
2023-05-20T04:56:06.497Z,102660.00
2023-05-20T04:59:11.560Z,102642.41
2023-05-20T05:02:15.764Z,102653.78
2023-05-20T05:05:19.566Z,102647.66
2023-05-20T05:08:23.249Z,102656.94
2023-05-20T05:11:27.173Z,102650.34
2023-05-20T05:14:32.056Z,102650.19
2023-05-20T05:17:35.996Z,102648.50
2023-05-20T05:20:39.594Z,102648.97
2023-05-20T05:23:43.839Z,102653.72
2023-05-20T05:26:47.329Z,102647.94
2023-05-20T05:29:52.307Z,102641.00
2023-05-20T05:32:56.043Z,102649.28
2023-05-20T05:36:01.211Z,102653.31
2023-05-20T05:39:04.860Z,102655.59
2023-05-20T05:42:08.499Z,102656.47
2023-05-20T05:45:13.679Z,102649.94
2023-05-20T05:48:17.332Z,102648.69
2023-05-20T05:51:21.031Z,102656.44
2023-05-20T05:54:24.746Z,102648.94
2023-05-20T05:57:28.233Z,102647.06
2023-05-20T06:00:33.302Z,102651.47
2023-05-20T06:03:36.927Z,102646.13
2023-05-20T06:06:40.665Z,102640.84
2023-05-20T06:09:44.182Z,102639.09
2023-05-20T06:12:47.668Z,102638.66
2023-05-20T06:15:53.714Z,102646.06
2023-05-20T06:18:57.625Z,102648.00
2023-05-20T06:22:01.415Z,102651.28
2023-05-20T06:25:06.417Z,102648.66
2023-05-20T06:28:10.564Z,102641.22
2023-05-20T06:31:15.828Z,102645.84
2023-05-20T06:34:19.519Z,102642.41
2023-05-20T06:37:24.558Z,102632.56
2023-05-20T06:40:28.852Z,102633.28
2023-05-20T06:43:34.229Z,102625.97
2023-05-20T06:46:39.467Z,102630.69
2023-05-20T06:49:44.493Z,102624.94
2023-05-20T06:52:50.099Z,102625.88
2023-05-20T06:55:56.833Z,102613.16
2023-05-20T06:59:00.744Z,102616.69
2023-05-20T07:02:06.502Z,102603.81
2023-05-20T07:05:11.611Z,102606.78
2023-05-20T07:08:15.279Z,102590.97
2023-05-20T07:11:19.030Z,102594.84
2023-05-20T07:14:22.679Z,102592.66
2023-05-20T07:17:29.373Z,102599.16
2023-05-20T07:20:33.166Z,102596.31
2023-05-20T07:23:37.131Z,102596.56
2023-05-20T07:26:41.201Z,102593.47
2023-05-20T07:29:44.681Z,102581.78
2023-05-20T07:32:49.654Z,102582.66
2023-05-20T07:35:54.619Z,102571.94
2023-05-20T07:39:04.004Z,102568.81
2023-05-20T07:42:09.767Z,102573.78
2023-05-20T07:45:13.457Z,102556.44
2023-05-20T07:48:18.915Z,102566.50
2023-05-20T07:51:22.494Z,102559.94
2023-05-20T07:54:26.140Z,102555.72
2023-05-20T07:57:30.420Z,102565.97
2023-05-20T08:00:33.928Z,102557.09
2023-05-20T08:03:39.145Z,102562.00
2023-05-20T08:06:44.495Z,102560.56
2023-05-20T08:09:48.401Z,102558.97
2023-05-20T08:12:52.197Z,102549.47
2023-05-20T08:15:55.851Z,102553.88
2023-05-20T08:19:00.768Z,102547.78
2023-05-20T08:22:04.338Z,102543.75
2023-05-20T08:25:11.070Z,102543.53
2023-05-20T08:28:15.282Z,102537.66
2023-05-20T08:31:19.323Z,102541.59
2023-05-20T08:34:24.362Z,102542.47
2023-05-20T08:37:28.245Z,102538.91
2023-05-20T08:40:31.812Z,102531.53
2023-05-20T08:43:36.179Z,102530.97
2023-05-20T08:46:41.941Z,102536.31
2023-05-20T08:49:47.296Z,102527.88
2023-05-20T08:52:51.751Z,102532.75
2023-05-20T08:56:01.518Z,102525.47
2023-05-20T08:59:06.539Z,102527.72
2023-05-20T09:02:11.993Z,102511.31
2023-05-20T09:05:18.200Z,102515.50
2023-05-20T09:08:26.922Z,102507.66
2023-05-20T09:11:31.995Z,102504.75
2023-05-20T09:14:35.914Z,102501.94
2023-05-20T09:17:40.311Z,102514.50
2023-05-20T09:20:49.547Z,102511.91
2023-05-20T09:23:54.199Z,102501.19
2023-05-20T09:26:58.952Z,102511.84
2023-05-20T09:30:02.620Z,102505.78
2023-05-20T09:33:07.874Z,102503.59
2023-05-20T09:36:16.623Z,102496.81
2023-05-20T09:39:30.785Z,102490.25
2023-05-20T09:42:44.159Z,102481.59
2023-05-20T09:45:48.893Z,102480.22
2023-05-20T09:48:52.762Z,102485.13
2023-05-20T09:52:00.831Z,102478.03
2023-05-20T09:55:07.010Z,102489.19
2023-05-20T09:58:16.277Z,102486.53
2023-05-20T10:01:20.146Z,102484.97
2023-05-20T10:04:26.743Z,102474.16
2023-05-20T10:08:12.964Z,102471.03
2023-05-20T10:11:29.417Z,102470.59
2023-05-20T10:14:56.811Z,102465.81
2023-05-20T10:18:19.781Z,102458.78
2023-05-20T10:21:26.073Z,102454.03
2023-05-20T10:24:38.201Z,102445.34
2023-05-20T10:27:46.496Z,102452.25
2023-05-20T10:30:52.241Z,102444.63
2023-05-20T10:33:56.145Z,102448.38
2023-05-20T10:37:00.433Z,102443.47
2023-05-20T10:40:14.722Z,102421.22
2023-05-20T10:43:27.793Z,102424.22
2023-05-20T10:46:40.069Z,102434.38
2023-05-20T10:49:53.917Z,102431.25
2023-05-20T10:53:05.322Z,102426.69
2023-05-20T10:56:19.432Z,102426.78
2023-05-20T10:59:23.820Z,102412.25
2023-05-20T11:02:29.218Z,102416.50
2023-05-20T11:05:34.063Z,102410.44
2023-05-20T11:08:37.645Z,102410.69
2023-05-20T11:11:43.116Z,102418.25
2023-05-20T11:14:47.606Z,102407.91
2023-05-20T11:17:56.061Z,102417.50
2023-05-20T11:21:00.023Z,102408.38
2023-05-20T11:24:03.576Z,102418.66
2023-05-20T11:27:09.799Z,102413.97
2023-05-20T11:30:17.071Z,102423.34
2023-05-20T11:33:20.974Z,102417.81
2023-05-20T11:36:28.096Z,102418.69
2023-05-20T11:39:32.877Z,102416.34
2023-05-20T11:42:38.646Z,102422.59
2023-05-20T11:45:43.579Z,102417.44
2023-05-20T11:48:55.046Z,102420.88
2023-05-20T11:51:58.930Z,102407.22
2023-05-20T11:55:02.524Z,102408.47
2023-05-20T11:58:07.561Z,102408.53
2023-05-20T12:01:21.708Z,102410.16
2023-05-20T12:04:26.239Z,102410.94
2023-05-20T12:07:29.950Z,102397.75
2023-05-20T12:10:34.281Z,102402.16
2023-05-20T12:13:41.004Z,102389.50
2023-05-20T12:16:44.598Z,102390.19
2023-05-20T12:19:48.140Z,102389.50
2023-05-20T12:22:52.821Z,102393.09
2023-05-20T12:25:56.662Z,102401.31
2023-05-20T12:29:01.684Z,102395.03
2023-05-20T12:32:06.193Z,102392.63
2023-05-20T12:35:11.504Z,102409.88
2023-05-20T12:38:15.098Z,102402.94
2023-05-20T12:41:18.829Z,102397.69
2023-05-20T12:44:23.763Z,102385.47
2023-05-20T12:47:27.505Z,102380.06
2023-05-20T12:50:30.996Z,102378.34
2023-05-20T12:53:34.604Z,102367.50
2023-05-20T12:56:38.164Z,102367.28
2023-05-20T12:59:43.151Z,102358.59
2023-05-20T13:02:46.822Z,102360.72
2023-05-20T13:05:50.581Z,102356.09
2023-05-20T13:08:54.136Z,102349.19
2023-05-20T13:11:57.773Z,102353.59
2023-05-20T13:15:02.928Z,102340.31
2023-05-20T13:18:07.138Z,102328.53
2023-05-20T13:21:10.793Z,102310.31
2023-05-20T13:24:14.406Z,102307.78
2023-05-20T13:27:17.930Z,102299.31
2023-05-20T13:30:22.796Z,102297.75
2023-05-20T13:33:26.304Z,102300.88
2023-05-20T13:36:29.921Z,102299.75
2023-05-20T13:39:33.533Z,102286.66
2023-05-20T13:42:37.537Z,102291.19
2023-05-20T13:45:42.599Z,102293.38
2023-05-20T13:48:46.325Z,102296.31
2023-05-20T13:51:49.921Z,102297.53
2023-05-20T13:54:53.410Z,102293.34
2023-05-20T13:57:57.038Z,102282.78
2023-05-20T14:01:02.281Z,102283.47
2023-05-20T14:04:06.062Z,102275.13
2023-05-20T14:07:10.097Z,102274.03
2023-05-20T14:10:14.631Z,102273.97
2023-05-20T14:13:18.109Z,102270.13
2023-05-20T14:16:23.079Z,102267.25
2023-05-20T14:19:27.418Z,102269.31
2023-05-20T14:22:31.116Z,102265.31
2023-05-20T14:25:34.758Z,102266.66
2023-05-20T14:28:38.681Z,102261.44
2023-05-20T14:31:43.944Z,102254.28
2023-05-20T14:34:47.576Z,102255.31
2023-05-20T14:37:51.282Z,102247.44
2023-05-20T14:40:54.807Z,102251.09
2023-05-20T14:43:58.466Z,102247.31
2023-05-20T14:47:04.404Z,102249.03
2023-05-20T14:50:08.998Z,102241.53
2023-05-20T14:53:12.622Z,102235.19
2023-05-20T14:56:16.247Z,102233.47
2023-05-20T14:59:20.376Z,102237.91
2023-05-20T15:02:25.429Z,102228.66
2023-05-20T15:05:29.101Z,102235.09
2023-05-20T15:08:33.575Z,102241.34
2023-05-20T15:11:37.168Z,102232.47
2023-05-20T15:14:40.669Z,102239.47
2023-05-20T15:17:45.564Z,102239.22
2023-05-20T15:20:49.284Z,102238.78
2023-05-20T15:23:52.813Z,102250.63
2023-05-20T15:26:56.361Z,102230.44
2023-05-20T15:29:59.967Z,102242.22
2023-05-20T15:33:05.107Z,102236.50
2023-05-20T15:36:09.184Z,102232.56
2023-05-20T15:39:13.053Z,102220.81
2023-05-20T15:42:18.735Z,102226.22
2023-05-20T15:45:22.382Z,102221.31
2023-05-20T15:48:28.488Z,102224.22
2023-05-20T15:51:31.945Z,102226.63
2023-05-20T15:54:35.812Z,102215.16
2023-05-20T15:57:39.391Z,102218.00
2023-05-20T16:00:43.104Z,102214.13
2023-05-20T16:03:48.393Z,102215.91
2023-05-20T16:06:52.028Z,102210.75
2023-05-20T16:09:55.970Z,102214.34
2023-05-20T16:12:59.722Z,102200.97
2023-05-20T16:16:03.835Z,102204.16
2023-05-20T16:19:08.823Z,102201.59
2023-05-20T16:22:13.515Z,102202.69
2023-05-20T16:25:17.189Z,102199.56
2023-05-20T16:28:20.728Z,102211.13
2023-05-20T16:31:24.700Z,102202.47
2023-05-20T16:34:29.590Z,102194.00
2023-05-20T16:37:33.266Z,102188.91
2023-05-20T16:40:36.862Z,102195.38
2023-05-20T16:43:40.454Z,102196.53
2023-05-20T16:46:44.137Z,102194.44
2023-05-20T16:49:49.149Z,102189.75
2023-05-20T16:52:52.843Z,102200.09
2023-05-20T16:55:56.823Z,102198.22
2023-05-20T16:59:00.385Z,102192.25
2023-05-20T17:02:04.317Z,102189.75
2023-05-20T17:05:11.107Z,102176.50
2023-05-20T17:08:15.265Z,102189.09
2023-05-20T17:11:18.982Z,102184.50
2023-05-20T17:14:22.657Z,102180.31
2023-05-20T17:17:26.209Z,102185.78
2023-05-20T17:20:31.705Z,102186.81
2023-05-20T17:23:35.414Z,102180.97
2023-05-20T17:26:39.649Z,102181.75
2023-05-20T17:29:43.408Z,102182.22
2023-05-20T17:32:48.107Z,102176.97
2023-05-20T17:35:53.090Z,102181.50
2023-05-20T17:38:57.032Z,102179.56
2023-05-20T17:42:00.586Z,102180.47
2023-05-20T17:45:04.394Z,102183.41
2023-05-20T17:48:10.073Z,102179.16
2023-05-20T17:51:16.984Z,102174.84
2023-05-20T17:54:20.793Z,102179.88
2023-05-20T17:57:24.448Z,102180.00
2023-05-20T18:00:28.604Z,102191.31
2023-05-20T18:03:32.434Z,102184.53
2023-05-20T18:06:38.214Z,102177.91
2023-05-20T18:09:41.876Z,102181.88
2023-05-20T18:12:45.563Z,102188.34
2023-05-20T18:15:49.376Z,102191.69
2023-05-20T18:18:53.058Z,102191.91
2023-05-20T18:21:58.671Z,102200.81
2023-05-20T18:25:02.266Z,102202.59
2023-05-20T18:28:08.821Z,102205.84
2023-05-20T18:31:12.485Z,102204.66
2023-05-20T18:34:16.279Z,102208.16
2023-05-20T18:37:21.472Z,102210.63
2023-05-20T18:40:25.325Z,102197.41
2023-05-20T18:43:28.858Z,102208.09
2023-05-20T18:46:33.296Z,102203.03
2023-05-20T18:49:37.020Z,102207.44
2023-05-20T18:52:42.266Z,102206.69
2023-05-20T18:55:47.760Z,102207.72
2023-05-20T18:58:51.726Z,102200.69
2023-05-20T19:01:55.285Z,102208.84
2023-05-20T19:04:58.877Z,102208.97
2023-05-20T19:08:05.894Z,102220.56
2023-05-20T19:11:09.994Z,102215.38
2023-05-20T19:14:13.623Z,102213.69
2023-05-20T19:17:20.250Z,102219.81
2023-05-20T19:20:24.720Z,102219.19
2023-05-20T19:23:29.736Z,102223.69
2023-05-20T19:26:33.936Z,102225.38
2023-05-20T19:29:37.513Z,102231.63
2023-05-20T19:32:41.143Z,102235.22
2023-05-20T19:35:44.855Z,102235.38
2023-05-20T19:38:49.966Z,102241.56
2023-05-20T19:41:54.177Z,102239.81
2023-05-20T19:44:57.974Z,102239.16
2023-05-20T19:48:01.882Z,102249.78
2023-05-20T19:51:05.758Z,102241.78
2023-05-20T19:54:37.681Z,102245.44
2023-05-20T19:57:42.136Z,102236.63
2023-05-20T20:00:45.867Z,102234.97
2023-05-20T20:03:49.373Z,102236.81
2023-05-20T20:06:52.853Z,102235.94
2023-05-20T20:09:58.068Z,102239.47
2023-05-20T20:13:01.786Z,102232.53
2023-05-20T20:16:06.239Z,102233.44
2023-05-20T20:19:11.929Z,102224.69
2023-05-20T20:22:16.827Z,102231.00
2023-05-20T20:25:22.021Z,102233.59
2023-05-20T20:28:25.850Z,102227.50
2023-05-20T20:31:29.625Z,102228.50
2023-05-20T20:34:33.157Z,102228.50
2023-05-20T20:37:38.431Z,102225.06
2023-05-20T20:40:44.935Z,102232.09
2023-05-20T20:43:48.713Z,102224.19
2023-05-20T20:46:52.824Z,102225.06
2023-05-20T20:49:56.996Z,102223.34
2023-05-20T20:53:00.607Z,102223.34
2023-05-20T20:56:06.280Z,102220.84
2023-05-20T20:59:10.313Z,102216.41
2023-05-20T21:02:14.068Z,102210.28
2023-05-20T21:05:18.072Z,102213.88
2023-05-20T21:08:27.704Z,102209.38
2023-05-20T21:11:33.153Z,102211.13
2023-05-20T21:14:37.178Z,102218.25
2023-05-20T21:17:40.908Z,102218.25
2023-05-20T21:20:44.769Z,102214.72
2023-05-20T21:23:49.110Z,102207.69
2023-05-20T21:26:54.045Z,102207.75
2023-05-20T21:29:57.782Z,102205.28
2023-05-20T21:33:01.737Z,102202.69
2023-05-20T21:36:06.359Z,102201.88
2023-05-20T21:39:09.915Z,102199.22
2023-05-20T21:42:14.854Z,102193.25
2023-05-20T21:45:18.932Z,102195.94
2023-05-20T21:48:23.198Z,102189.81
2023-05-20T21:51:26.728Z,102188.13
2023-05-20T21:54:30.209Z,102184.66
2023-05-20T21:57:35.059Z,102192.53
2023-05-20T22:00:38.893Z,102185.53
2023-05-20T22:03:47.868Z,102184.75
2023-05-20T22:06:54.272Z,102175.19
2023-05-20T22:09:57.761Z,102175.25
2023-05-20T22:13:03.149Z,102169.13
2023-05-20T22:16:07.627Z,102169.09
2023-05-20T22:19:11.293Z,102158.63
2023-05-20T22:22:14.913Z,102161.25
2023-05-20T22:25:18.708Z,102158.66
2023-05-20T22:28:23.896Z,102156.03
2023-05-20T22:31:27.707Z,102161.41
2023-05-20T22:34:31.272Z,102149.97
2023-05-20T22:37:35.059Z,102151.00
2023-05-20T22:40:39.309Z,102140.50
2023-05-20T22:43:44.633Z,102137.84
2023-05-20T22:46:48.155Z,102134.41
2023-05-20T22:49:51.951Z,102138.03
2023-05-20T22:52:55.970Z,102134.66
2023-05-20T22:56:00.019Z,102122.66
2023-05-20T22:59:05.040Z,102118.41
2023-05-20T23:02:08.994Z,102110.63
2023-05-20T23:05:13.031Z,102111.69
2023-05-20T23:08:16.803Z,102104.06
2023-05-20T23:11:20.881Z,102105.97
2023-05-20T23:14:26.290Z,102105.28
2023-05-20T23:17:30.015Z,102092.28
2023-05-20T23:20:33.657Z,102100.13
2023-05-20T23:23:37.192Z,102096.06
2023-05-20T23:26:40.824Z,102090.72
2023-05-20T23:29:46.036Z,102090.13
2023-05-20T23:32:50.012Z,102083.03
2023-05-20T23:35:53.919Z,102084.22
2023-05-20T23:38:57.812Z,102076.41
2023-05-20T23:42:01.428Z,102076.59
2023-05-20T23:45:07.754Z,102073.28
2023-05-20T23:48:13.570Z,102071.69
2023-05-20T23:51:17.382Z,102070.16
2023-05-20T23:54:20.940Z,102068.47
2023-05-20T23:57:24.436Z,102066.81
